sensor_id;sensor_type;location;lat;lon;timestamp;pressure;altitude;pressure_sealevel;temperature;humidity
77881;BME280;67077;50.298;18.996;2023-07-20T00:02:27;97210.35;;;19.12;55.35
77881;BME280;67077;50.298;18.996;2023-07-20T00:04:55;97211.16;;;19.14;55.18
77881;BME280;67077;50.298;18.996;2023-07-20T00:07:23;97215.80;;;19.17;55.33
77881;BME280;67077;50.298;18.996;2023-07-20T00:09:52;97218.69;;;19.18;55.42
77881;BME280;67077;50.298;18.996;2023-07-20T00:12:20;97224.13;;;19.20;55.39
77881;BME280;67077;50.298;18.996;2023-07-20T00:14:48;97226.63;;;19.21;55.93
77881;BME280;67077;50.298;18.996;2023-07-20T00:17:16;97243.05;;;19.22;56.00
77881;BME280;67077;50.298;18.996;2023-07-20T00:19:44;97270.61;;;19.22;56.19
77881;BME280;67077;50.298;18.996;2023-07-20T00:22:12;97289.36;;;19.21;56.14
77881;BME280;67077;50.298;18.996;2023-07-20T00:24:41;97283.85;;;19.21;54.93
77881;BME280;67077;50.298;18.996;2023-07-20T00:27:09;97292.17;;;19.21;54.95
77881;BME280;67077;50.298;18.996;2023-07-20T00:29:37;97296.23;;;19.20;55.24
77881;BME280;67077;50.298;18.996;2023-07-20T00:32:05;97300.64;;;19.19;55.43
77881;BME280;67077;50.298;18.996;2023-07-20T00:34:34;97305.50;;;19.16;55.54
77881;BME280;67077;50.298;18.996;2023-07-20T00:37:02;97310.71;;;19.15;55.92
77881;BME280;67077;50.298;18.996;2023-07-20T00:39:30;97317.28;;;19.10;56.53
77881;BME280;67077;50.298;18.996;2023-07-20T00:41:58;97328.73;;;19.01;58.01
77881;BME280;67077;50.298;18.996;2023-07-20T00:44:26;97331.55;;;18.90;58.93
77881;BME280;67077;50.298;18.996;2023-07-20T00:46:54;97330.83;;;18.75;59.80
77881;BME280;67077;50.298;18.996;2023-07-20T00:49:23;97329.33;;;18.60;60.80
77881;BME280;67077;50.298;18.996;2023-07-20T00:51:51;97334.17;;;18.45;61.80
77881;BME280;67077;50.298;18.996;2023-07-20T00:54:19;97338.58;;;18.30;62.45
77881;BME280;67077;50.298;18.996;2023-07-20T00:56:47;97335.66;;;18.18;62.55
77881;BME280;67077;50.298;18.996;2023-07-20T00:59:15;97331.09;;;18.08;63.06
77881;BME280;67077;50.298;18.996;2023-07-20T01:01:44;97334.50;;;17.99;63.86
77881;BME280;67077;50.298;18.996;2023-07-20T01:04:13;97332.05;;;17.88;63.84
77881;BME280;67077;50.298;18.996;2023-07-20T01:06:50;97328.20;;;17.79;64.14
77881;BME280;67077;50.298;18.996;2023-07-20T01:09:41;97320.80;;;17.71;64.36
77881;BME280;67077;50.298;18.996;2023-07-20T01:12:30;97320.00;;;17.66;64.71
77881;BME280;67077;50.298;18.996;2023-07-20T01:15:01;97306.88;;;17.66;65.18
77881;BME280;67077;50.298;18.996;2023-07-20T01:17:30;97289.02;;;17.68;65.71
77881;BME280;67077;50.298;18.996;2023-07-20T01:19:58;97278.89;;;17.67;65.66
77881;BME280;67077;50.298;18.996;2023-07-20T01:25:25;97278.61;;;17.58;65.95
77881;BME280;67077;50.298;18.996;2023-07-20T01:33:47;97266.89;;;17.46;66.11
77881;BME280;67077;50.298;18.996;2023-07-20T01:36:18;97266.37;;;17.42;66.34
77881;BME280;67077;50.298;18.996;2023-07-20T01:38:47;97272.73;;;17.40;66.49
77881;BME280;67077;50.298;18.996;2023-07-20T01:41:16;97283.48;;;17.40;66.58
77881;BME280;67077;50.298;18.996;2023-07-20T01:43:45;97276.66;;;17.38;66.66
77881;BME280;67077;50.298;18.996;2023-07-20T01:46:14;97273.78;;;17.37;66.75
77881;BME280;67077;50.298;18.996;2023-07-20T01:48:42;97276.64;;;17.36;66.92
77881;BME280;67077;50.298;18.996;2023-07-20T01:51:10;97280.05;;;17.31;67.14
77881;BME280;67077;50.298;18.996;2023-07-20T01:53:41;97279.94;;;17.28;67.32
77881;BME280;67077;50.298;18.996;2023-07-20T01:56:09;97289.30;;;17.27;67.34
77881;BME280;67077;50.298;18.996;2023-07-20T01:58:37;97298.85;;;17.27;67.43
77881;BME280;67077;50.298;18.996;2023-07-20T02:01:05;97302.95;;;17.27;67.64
77881;BME280;67077;50.298;18.996;2023-07-20T02:03:33;97302.53;;;17.24;67.74
77881;BME280;67077;50.298;18.996;2023-07-20T02:06:01;97301.19;;;17.20;67.96
77881;BME280;67077;50.298;18.996;2023-07-20T02:08:29;97308.42;;;17.18;68.15
77881;BME280;67077;50.298;18.996;2023-07-20T02:10:57;97316.33;;;17.15;68.36
77881;BME280;67077;50.298;18.996;2023-07-20T02:13:25;97318.30;;;17.14;68.52
77881;BME280;67077;50.298;18.996;2023-07-20T02:15:53;97320.94;;;17.10;68.89
77881;BME280;67077;50.298;18.996;2023-07-20T02:18:21;97313.39;;;17.04;69.29
77881;BME280;67077;50.298;18.996;2023-07-20T02:20:53;97308.70;;;16.97;69.90
77881;BME280;67077;50.298;18.996;2023-07-20T02:23:21;97315.36;;;16.90;70.67
77881;BME280;67077;50.298;18.996;2023-07-20T02:25:49;97323.61;;;16.84;70.71
77881;BME280;67077;50.298;18.996;2023-07-20T02:28:17;97332.64;;;16.77;70.88
77881;BME280;67077;50.298;18.996;2023-07-20T02:30:45;97336.65;;;16.70;70.88
77881;BME280;67077;50.298;18.996;2023-07-20T02:33:14;97345.41;;;16.65;71.06
77881;BME280;67077;50.298;18.996;2023-07-20T02:35:42;97350.11;;;16.62;71.38
77881;BME280;67077;50.298;18.996;2023-07-20T02:38:09;97352.19;;;16.60;71.57
77881;BME280;67077;50.298;18.996;2023-07-20T02:40:37;97347.23;;;16.59;72.16
77881;BME280;67077;50.298;18.996;2023-07-20T02:43:05;97337.63;;;16.53;72.50
77881;BME280;67077;50.298;18.996;2023-07-20T02:45:33;97351.23;;;16.46;72.73
77881;BME280;67077;50.298;18.996;2023-07-20T02:48:01;97358.77;;;16.39;72.56
77881;BME280;67077;50.298;18.996;2023-07-20T02:50:39;97346.21;;;16.35;72.49
77881;BME280;67077;50.298;18.996;2023-07-20T02:53:06;97346.98;;;16.30;72.31
77881;BME280;67077;50.298;18.996;2023-07-20T02:55:35;97355.48;;;16.24;72.53
77881;BME280;67077;50.298;18.996;2023-07-20T02:58:03;97353.52;;;16.19;72.71
77881;BME280;67077;50.298;18.996;2023-07-20T03:00:31;97362.80;;;16.14;72.68
77881;BME280;67077;50.298;18.996;2023-07-20T03:02:58;97362.32;;;16.12;72.76
77881;BME280;67077;50.298;18.996;2023-07-20T03:05:26;97368.73;;;16.07;72.79
77881;BME280;67077;50.298;18.996;2023-07-20T03:07:55;97366.99;;;16.02;73.06
77881;BME280;67077;50.298;18.996;2023-07-20T03:10:23;97369.83;;;15.97;73.24
77881;BME280;67077;50.298;18.996;2023-07-20T03:12:51;97370.70;;;15.96;73.49
77881;BME280;67077;50.298;18.996;2023-07-20T03:15:20;97378.66;;;15.95;73.54
77881;BME280;67077;50.298;18.996;2023-07-20T03:17:47;97377.91;;;15.94;73.56
77881;BME280;67077;50.298;18.996;2023-07-20T03:20:15;97374.17;;;15.92;73.66
77881;BME280;67077;50.298;18.996;2023-07-20T03:22:43;97383.11;;;15.91;73.71
77881;BME280;67077;50.298;18.996;2023-07-20T03:25:11;97384.70;;;15.92;73.74
77881;BME280;67077;50.298;18.996;2023-07-20T03:27:39;97396.11;;;15.94;73.68
77881;BME280;67077;50.298;18.996;2023-07-20T03:30:08;97393.58;;;15.93;73.92
77881;BME280;67077;50.298;18.996;2023-07-20T03:32:37;97390.80;;;15.90;74.12
77881;BME280;67077;50.298;18.996;2023-07-20T03:35:06;97399.02;;;15.89;74.34
77881;BME280;67077;50.298;18.996;2023-07-20T03:37:34;97417.94;;;15.88;74.75
77881;BME280;67077;50.298;18.996;2023-07-20T03:40:03;97409.17;;;15.87;74.72
77881;BME280;67077;50.298;18.996;2023-07-20T03:42:32;97415.38;;;15.85;74.73
77881;BME280;67077;50.298;18.996;2023-07-20T03:45:00;97417.55;;;15.83;75.12
77881;BME280;67077;50.298;18.996;2023-07-20T03:47:28;97426.44;;;15.81;75.30
77881;BME280;67077;50.298;18.996;2023-07-20T03:49:56;97417.17;;;15.81;75.51
77881;BME280;67077;50.298;18.996;2023-07-20T03:52:24;97411.77;;;15.81;75.35
77881;BME280;67077;50.298;18.996;2023-07-20T03:54:52;97398.20;;;15.80;75.46
77881;BME280;67077;50.298;18.996;2023-07-20T03:57:20;97418.52;;;15.78;75.30
77881;BME280;67077;50.298;18.996;2023-07-20T03:59:48;97425.95;;;15.78;75.69
77881;BME280;67077;50.298;18.996;2023-07-20T04:02:16;97418.31;;;15.79;76.02
77881;BME280;67077;50.298;18.996;2023-07-20T04:04:44;97408.08;;;15.80;75.79
77881;BME280;67077;50.298;18.996;2023-07-20T04:07:12;97402.14;;;15.81;75.69
77881;BME280;67077;50.298;18.996;2023-07-20T04:09:40;97422.45;;;15.84;75.76
77881;BME280;67077;50.298;18.996;2023-07-20T04:12:08;97426.67;;;15.86;75.94
77881;BME280;67077;50.298;18.996;2023-07-20T04:14:36;97430.97;;;15.88;75.85
77881;BME280;67077;50.298;18.996;2023-07-20T04:17:04;97405.52;;;15.88;76.24
77881;BME280;67077;50.298;18.996;2023-07-20T04:19:32;97409.27;;;15.85;76.39
77881;BME280;67077;50.298;18.996;2023-07-20T04:22:00;97415.05;;;15.84;76.29
77881;BME280;67077;50.298;18.996;2023-07-20T04:24:29;97411.77;;;15.86;76.11
77881;BME280;67077;50.298;18.996;2023-07-20T04:26:58;97423.29;;;15.87;76.14
77881;BME280;67077;50.298;18.996;2023-07-20T04:29:26;97415.76;;;15.85;76.41
77881;BME280;67077;50.298;18.996;2023-07-20T04:31:54;97419.63;;;15.80;77.21
77881;BME280;67077;50.298;18.996;2023-07-20T04:34:21;97408.84;;;15.81;76.35
77881;BME280;67077;50.298;18.996;2023-07-20T04:36:50;97403.88;;;15.87;75.86
77881;BME280;67077;50.298;18.996;2023-07-20T04:39:18;97403.44;;;15.92;75.68
77881;BME280;67077;50.298;18.996;2023-07-20T04:41:46;97405.27;;;15.93;75.85
77881;BME280;67077;50.298;18.996;2023-07-20T04:44:14;97411.31;;;15.94;75.72
77881;BME280;67077;50.298;18.996;2023-07-20T04:46:42;97412.19;;;15.97;75.64
77881;BME280;67077;50.298;18.996;2023-07-20T04:49:10;97411.27;;;16.01;75.76
77881;BME280;67077;50.298;18.996;2023-07-20T04:51:40;97405.65;;;16.04;75.73
77881;BME280;67077;50.298;18.996;2023-07-20T04:54:08;97413.01;;;16.06;75.83
77881;BME280;67077;50.298;18.996;2023-07-20T04:56:36;97426.20;;;16.05;75.99
77881;BME280;67077;50.298;18.996;2023-07-20T04:59:04;97433.40;;;16.02;76.76
77881;BME280;67077;50.298;18.996;2023-07-20T05:01:32;97433.78;;;16.00;76.83
77881;BME280;67077;50.298;18.996;2023-07-20T05:04:00;97429.85;;;16.00;76.90
77881;BME280;67077;50.298;18.996;2023-07-20T05:06:28;97428.11;;;16.03;76.73
77881;BME280;67077;50.298;18.996;2023-07-20T05:08:56;97426.87;;;16.08;76.76
77881;BME280;67077;50.298;18.996;2023-07-20T05:11:25;97433.64;;;16.18;76.57
77881;BME280;67077;50.298;18.996;2023-07-20T05:13:53;97442.39;;;16.27;76.77
77881;BME280;67077;50.298;18.996;2023-07-20T05:16:20;97445.55;;;16.40;76.72
77881;BME280;67077;50.298;18.996;2023-07-20T05:18:48;97448.66;;;16.51;76.61
77881;BME280;67077;50.298;18.996;2023-07-20T05:21:16;97444.58;;;16.62;76.45
77881;BME280;67077;50.298;18.996;2023-07-20T05:23:44;97450.27;;;16.79;76.36
77881;BME280;67077;50.298;18.996;2023-07-20T05:26:12;97457.50;;;17.03;76.09
77881;BME280;67077;50.298;18.996;2023-07-20T05:28:41;97462.90;;;17.32;75.50
77881;BME280;67077;50.298;18.996;2023-07-20T05:31:09;97464.30;;;17.53;74.90
77881;BME280;67077;50.298;18.996;2023-07-20T05:33:37;97458.08;;;17.73;74.37
77881;BME280;67077;50.298;18.996;2023-07-20T05:36:05;97450.77;;;17.92;73.70
77881;BME280;67077;50.298;18.996;2023-07-20T05:38:33;97457.85;;;18.06;72.82
77881;BME280;67077;50.298;18.996;2023-07-20T05:41:01;97461.93;;;18.18;72.19
77881;BME280;67077;50.298;18.996;2023-07-20T05:43:30;97461.57;;;18.31;71.47
77881;BME280;67077;50.298;18.996;2023-07-20T05:45:59;97459.41;;;18.42;70.82
77881;BME280;67077;50.298;18.996;2023-07-20T05:48:27;97456.50;;;18.44;70.19
77881;BME280;67077;50.298;18.996;2023-07-20T05:50:55;97463.11;;;18.46;69.84
77881;BME280;67077;50.298;18.996;2023-07-20T05:53:24;97461.50;;;18.49;69.48
77881;BME280;67077;50.298;18.996;2023-07-20T05:55:53;97462.17;;;18.52;69.27
77881;BME280;67077;50.298;18.996;2023-07-20T05:58:21;97460.02;;;18.65;69.17
77881;BME280;67077;50.298;18.996;2023-07-20T06:00:50;97463.78;;;18.82;68.58
77881;BME280;67077;50.298;18.996;2023-07-20T06:03:18;97466.61;;;18.97;68.33
77881;BME280;67077;50.298;18.996;2023-07-20T06:05:49;97470.83;;;19.07;67.62
77881;BME280;67077;50.298;18.996;2023-07-20T06:08:17;97478.58;;;19.17;67.43
77881;BME280;67077;50.298;18.996;2023-07-20T06:10:49;97469.82;;;19.32;67.28
77881;BME280;67077;50.298;18.996;2023-07-20T06:13:19;97467.36;;;19.50;66.94
77881;BME280;67077;50.298;18.996;2023-07-20T06:15:47;97465.89;;;19.62;66.36
77881;BME280;67077;50.298;18.996;2023-07-20T06:18:16;97465.00;;;19.76;65.97
77881;BME280;67077;50.298;18.996;2023-07-20T06:20:51;97463.90;;;19.81;65.58
77881;BME280;67077;50.298;18.996;2023-07-20T06:23:20;97461.71;;;19.92;65.41
77881;BME280;67077;50.298;18.996;2023-07-20T06:25:48;97461.21;;;20.05;64.82
77881;BME280;67077;50.298;18.996;2023-07-20T06:28:16;97455.80;;;20.19;64.26
77881;BME280;67077;50.298;18.996;2023-07-20T06:30:46;97453.52;;;20.32;63.97
77881;BME280;67077;50.298;18.996;2023-07-20T06:33:14;97454.98;;;20.43;62.71
77881;BME280;67077;50.298;18.996;2023-07-20T06:35:45;97458.28;;;20.50;62.68
77881;BME280;67077;50.298;18.996;2023-07-20T06:38:16;97470.43;;;20.60;61.79
77881;BME280;67077;50.298;18.996;2023-07-20T06:40:46;97474.16;;;20.60;61.63
77881;BME280;67077;50.298;18.996;2023-07-20T06:43:14;97480.61;;;20.58;60.75
77881;BME280;67077;50.298;18.996;2023-07-20T06:45:43;97475.38;;;20.49;60.57
77881;BME280;67077;50.298;18.996;2023-07-20T06:48:12;97475.72;;;20.45;60.62
77881;BME280;67077;50.298;18.996;2023-07-20T06:50:40;97478.39;;;20.46;60.72
77881;BME280;67077;50.298;18.996;2023-07-20T06:53:09;97481.34;;;20.43;60.58
77881;BME280;67077;50.298;18.996;2023-07-20T06:55:38;97483.88;;;20.43;60.73
77881;BME280;67077;50.298;18.996;2023-07-20T06:58:07;97478.02;;;20.44;60.23
77881;BME280;67077;50.298;18.996;2023-07-20T07:00:39;97474.83;;;20.41;59.66
77881;BME280;67077;50.298;18.996;2023-07-20T07:03:08;97475.81;;;20.36;59.46
77881;BME280;67077;50.298;18.996;2023-07-20T07:05:37;97478.05;;;20.33;59.23
77881;BME280;67077;50.298;18.996;2023-07-20T07:08:07;97476.05;;;20.28;58.79
77881;BME280;67077;50.298;18.996;2023-07-20T07:10:36;97478.92;;;20.30;58.28
77881;BME280;67077;50.298;18.996;2023-07-20T07:13:05;97475.42;;;20.22;56.70
77881;BME280;67077;50.298;18.996;2023-07-20T07:15:33;97475.75;;;20.14;56.99
77881;BME280;67077;50.298;18.996;2023-07-20T07:18:01;97477.91;;;20.15;57.05
77881;BME280;67077;50.298;18.996;2023-07-20T07:20:31;97476.83;;;20.12;57.10
77881;BME280;67077;50.298;18.996;2023-07-20T07:23:00;97479.52;;;20.07;57.80
77881;BME280;67077;50.298;18.996;2023-07-20T07:25:28;97476.77;;;20.08;57.91
77881;BME280;67077;50.298;18.996;2023-07-20T07:27:56;97486.89;;;20.05;56.31
77881;BME280;67077;50.298;18.996;2023-07-20T07:30:25;97484.36;;;20.01;56.20
77881;BME280;67077;50.298;18.996;2023-07-20T07:32:53;97485.79;;;19.93;56.73
77881;BME280;67077;50.298;18.996;2023-07-20T07:35:21;97480.40;;;19.89;57.78
77881;BME280;67077;50.298;18.996;2023-07-20T07:37:49;97486.48;;;19.92;57.73
77881;BME280;67077;50.298;18.996;2023-07-20T07:40:17;97487.45;;;19.93;58.06
77881;BME280;67077;50.298;18.996;2023-07-20T07:42:46;97489.66;;;19.95;57.41
77881;BME280;67077;50.298;18.996;2023-07-20T07:45:15;97492.24;;;19.99;57.40
77881;BME280;67077;50.298;18.996;2023-07-20T07:47:44;97493.38;;;19.93;57.28
77881;BME280;67077;50.298;18.996;2023-07-20T07:50:12;97492.87;;;19.98;57.62
77881;BME280;67077;50.298;18.996;2023-07-20T07:52:42;97496.45;;;20.04;57.91
77881;BME280;67077;50.298;18.996;2023-07-20T07:55:11;97496.17;;;20.06;57.70
77881;BME280;67077;50.298;18.996;2023-07-20T07:57:39;97502.72;;;20.16;57.43
77881;BME280;67077;50.298;18.996;2023-07-20T08:00:07;97496.45;;;20.25;56.81
77881;BME280;67077;50.298;18.996;2023-07-20T08:02:39;97500.68;;;20.25;56.72
77881;BME280;67077;50.298;18.996;2023-07-20T08:05:07;97489.15;;;20.25;56.98
77881;BME280;67077;50.298;18.996;2023-07-20T08:07:36;97493.02;;;20.35;57.65
77881;BME280;67077;50.298;18.996;2023-07-20T08:10:05;97496.48;;;20.45;57.16
77881;BME280;67077;50.298;18.996;2023-07-20T08:12:34;97506.64;;;20.59;57.18
77881;BME280;67077;50.298;18.996;2023-07-20T08:15:02;97504.82;;;20.74;56.95
77881;BME280;67077;50.298;18.996;2023-07-20T08:17:30;97505.23;;;20.91;56.65
77881;BME280;67077;50.298;18.996;2023-07-20T08:19:58;97509.91;;;21.08;56.31
77881;BME280;67077;50.298;18.996;2023-07-20T08:22:27;97509.70;;;21.21;56.19
77881;BME280;67077;50.298;18.996;2023-07-20T08:24:55;97513.08;;;21.31;55.95
77881;BME280;67077;50.298;18.996;2023-07-20T08:27:24;97507.89;;;21.31;55.68
77881;BME280;67077;50.298;18.996;2023-07-20T08:29:52;97509.31;;;21.32;55.58
77881;BME280;67077;50.298;18.996;2023-07-20T08:32:20;97506.78;;;21.32;55.51
77881;BME280;67077;50.298;18.996;2023-07-20T08:34:48;97510.95;;;21.28;55.34
77881;BME280;67077;50.298;18.996;2023-07-20T08:37:16;97509.52;;;21.26;55.39
77881;BME280;67077;50.298;18.996;2023-07-20T08:39:44;97509.48;;;21.20;55.12
77881;BME280;67077;50.298;18.996;2023-07-20T08:42:14;97512.33;;;21.11;55.05
77881;BME280;67077;50.298;18.996;2023-07-20T08:44:44;97517.77;;;21.05;55.50
77881;BME280;67077;50.298;18.996;2023-07-20T08:47:13;97520.09;;;21.04;55.63
77881;BME280;67077;50.298;18.996;2023-07-20T08:49:45;97517.77;;;21.02;55.39
77881;BME280;67077;50.298;18.996;2023-07-20T08:52:16;97518.63;;;21.00;55.50
77881;BME280;67077;50.298;18.996;2023-07-20T08:54:44;97522.19;;;20.97;55.87
77881;BME280;67077;50.298;18.996;2023-07-20T08:57:13;97519.80;;;21.02;56.20
77881;BME280;67077;50.298;18.996;2023-07-20T08:59:44;97526.09;;;21.04;55.92
77881;BME280;67077;50.298;18.996;2023-07-20T09:02:18;97523.29;;;20.93;56.35
77881;BME280;67077;50.298;18.996;2023-07-20T09:04:48;97527.34;;;20.97;56.66
77881;BME280;67077;50.298;18.996;2023-07-20T09:07:17;97525.46;;;21.11;56.69
77881;BME280;67077;50.298;18.996;2023-07-20T09:09:47;97529.06;;;21.23;56.00
77881;BME280;67077;50.298;18.996;2023-07-20T09:12:15;97529.14;;;21.30;55.95
77881;BME280;67077;50.298;18.996;2023-07-20T09:14:44;97523.30;;;21.31;56.04
77881;BME280;67077;50.298;18.996;2023-07-20T09:17:15;97526.35;;;21.40;56.31
77881;BME280;67077;50.298;18.996;2023-07-20T09:19:47;97521.43;;;21.63;56.16
77881;BME280;67077;50.298;18.996;2023-07-20T09:22:15;97519.59;;;21.78;55.03
77881;BME280;67077;50.298;18.996;2023-07-20T09:24:45;97518.13;;;21.99;54.33
77881;BME280;67077;50.298;18.996;2023-07-20T09:27:14;97519.58;;;22.20;53.71
77881;BME280;67077;50.298;18.996;2023-07-20T09:29:50;97514.91;;;22.37;52.79
77881;BME280;67077;50.298;18.996;2023-07-20T09:32:19;97515.41;;;22.54;52.36
77881;BME280;67077;50.298;18.996;2023-07-20T09:34:49;97513.15;;;22.64;51.56
77881;BME280;67077;50.298;18.996;2023-07-20T09:37:20;97505.84;;;22.73;51.13
77881;BME280;67077;50.298;18.996;2023-07-20T09:39:53;97507.37;;;22.75;51.15
77881;BME280;67077;50.298;18.996;2023-07-20T09:42:22;97509.04;;;22.65;51.18
77881;BME280;67077;50.298;18.996;2023-07-20T09:44:50;97511.85;;;22.55;51.39
77881;BME280;67077;50.298;18.996;2023-07-20T09:47:22;97522.70;;;22.54;51.84
77881;BME280;67077;50.298;18.996;2023-07-20T09:49:59;97523.55;;;22.55;52.07
77881;BME280;67077;50.298;18.996;2023-07-20T09:52:28;97521.04;;;22.68;52.12
77881;BME280;67077;50.298;18.996;2023-07-20T09:54:57;97522.51;;;22.78;52.04
77881;BME280;67077;50.298;18.996;2023-07-20T09:57:26;97523.46;;;22.94;51.57
77881;BME280;67077;50.298;18.996;2023-07-20T09:59:54;97524.09;;;22.96;50.68
77881;BME280;67077;50.298;18.996;2023-07-20T10:02:25;97521.60;;;22.86;50.72
77881;BME280;67077;50.298;18.996;2023-07-20T10:04:53;97519.56;;;22.82;51.17
77881;BME280;67077;50.298;18.996;2023-07-20T10:07:22;97518.62;;;22.75;52.31
77881;BME280;67077;50.298;18.996;2023-07-20T10:09:53;97530.76;;;22.55;52.17
77881;BME280;67077;50.298;18.996;2023-07-20T10:12:23;97526.50;;;22.29;50.82
77881;BME280;67077;50.298;18.996;2023-07-20T10:15:06;97518.35;;;22.16;51.81
77881;BME280;67077;50.298;18.996;2023-07-20T10:17:59;97515.33;;;22.23;51.92
77881;BME280;67077;50.298;18.996;2023-07-20T10:20:33;97524.85;;;22.33;52.72
77881;BME280;67077;50.298;18.996;2023-07-20T10:23:04;97525.22;;;22.27;52.55
77881;BME280;67077;50.298;18.996;2023-07-20T10:25:33;97521.21;;;22.28;51.67
77881;BME280;67077;50.298;18.996;2023-07-20T10:28:10;97523.44;;;22.40;50.88
77881;BME280;67077;50.298;18.996;2023-07-20T10:30:41;97518.33;;;22.52;51.39
77881;BME280;67077;50.298;18.996;2023-07-20T10:33:10;97512.69;;;22.67;51.68
77881;BME280;67077;50.298;18.996;2023-07-20T10:35:58;97516.58;;;22.79;51.16
77881;BME280;67077;50.298;18.996;2023-07-20T10:44:23;97518.29;;;22.58;50.44
77881;BME280;67077;50.298;18.996;2023-07-20T10:46:59;97514.90;;;22.41;49.95
77881;BME280;67077;50.298;18.996;2023-07-20T10:49:28;97510.54;;;22.35;50.45
77881;BME280;67077;50.298;18.996;2023-07-20T10:51:57;97515.71;;;22.29;50.51
77881;BME280;67077;50.298;18.996;2023-07-20T10:56:56;97509.87;;;22.40;49.91
77881;BME280;67077;50.298;18.996;2023-07-20T11:01:55;97494.75;;;22.51;48.70
77881;BME280;67077;50.298;18.996;2023-07-20T11:04:45;97497.92;;;22.65;48.25
77881;BME280;67077;50.298;18.996;2023-07-20T11:07:37;97493.54;;;22.85;47.19
77881;BME280;67077;50.298;18.996;2023-07-20T11:10:13;97485.58;;;23.06;46.33
77881;BME280;67077;50.298;18.996;2023-07-20T11:13:18;97491.61;;;23.20;45.70
77881;BME280;67077;50.298;18.996;2023-07-20T11:15:47;97490.71;;;23.25;44.64
77881;BME280;67077;50.298;18.996;2023-07-20T11:18:15;97484.98;;;23.27;44.80
77881;BME280;67077;50.298;18.996;2023-07-20T11:20:43;97485.35;;;23.28;44.64
77881;BME280;67077;50.298;18.996;2023-07-20T11:23:11;97481.83;;;23.42;43.62
77881;BME280;67077;50.298;18.996;2023-07-20T11:25:40;97481.13;;;23.52;44.03
77881;BME280;67077;50.298;18.996;2023-07-20T11:28:09;97472.41;;;23.72;43.68
77881;BME280;67077;50.298;18.996;2023-07-20T11:30:38;97476.21;;;23.95;43.53
77881;BME280;67077;50.298;18.996;2023-07-20T11:33:10;97477.44;;;24.03;42.03
77881;BME280;67077;50.298;18.996;2023-07-20T11:35:45;97472.30;;;23.90;41.97
77881;BME280;67077;50.298;18.996;2023-07-20T11:38:14;97476.40;;;23.85;42.17
77881;BME280;67077;50.298;18.996;2023-07-20T11:40:46;97470.72;;;23.83;42.67
77881;BME280;67077;50.298;18.996;2023-07-20T11:43:14;97474.16;;;23.92;43.29
77881;BME280;67077;50.298;18.996;2023-07-20T11:45:45;97472.55;;;23.89;42.94
77881;BME280;67077;50.298;18.996;2023-07-20T11:48:16;97467.73;;;23.81;42.55
77881;BME280;67077;50.298;18.996;2023-07-20T11:50:45;97476.07;;;23.70;42.86
77881;BME280;67077;50.298;18.996;2023-07-20T11:53:14;97477.60;;;23.53;43.12
77881;BME280;67077;50.298;18.996;2023-07-20T11:55:42;97476.39;;;23.45;42.78
77881;BME280;67077;50.298;18.996;2023-07-20T11:58:10;97473.03;;;23.37;42.24
77881;BME280;67077;50.298;18.996;2023-07-20T12:00:39;97479.05;;;23.33;42.35
77881;BME280;67077;50.298;18.996;2023-07-20T12:03:09;97468.67;;;23.33;42.81
77881;BME280;67077;50.298;18.996;2023-07-20T12:05:38;97463.36;;;23.37;42.93
77881;BME280;67077;50.298;18.996;2023-07-20T12:08:07;97462.79;;;23.44;43.44
77881;BME280;67077;50.298;18.996;2023-07-20T12:10:39;97451.49;;;23.52;42.50
77881;BME280;67077;50.298;18.996;2023-07-20T12:13:13;97449.94;;;23.59;42.91
77881;BME280;67077;50.298;18.996;2023-07-20T12:15:43;97446.73;;;23.66;42.58
77881;BME280;67077;50.298;18.996;2023-07-20T12:18:11;97454.21;;;23.73;41.62
77881;BME280;67077;50.298;18.996;2023-07-20T12:20:39;97445.91;;;23.74;41.79
77881;BME280;67077;50.298;18.996;2023-07-20T12:23:12;97452.40;;;23.79;41.05
77881;BME280;67077;50.298;18.996;2023-07-20T12:25:45;97454.12;;;23.75;41.68
77881;BME280;67077;50.298;18.996;2023-07-20T12:28:17;97450.12;;;23.70;41.52
77881;BME280;67077;50.298;18.996;2023-07-20T12:30:46;97440.02;;;23.63;41.87
77881;BME280;67077;50.298;18.996;2023-07-20T12:33:14;97434.66;;;23.68;42.42
77881;BME280;67077;50.298;18.996;2023-07-20T12:35:43;97439.84;;;23.74;41.71
77881;BME280;67077;50.298;18.996;2023-07-20T12:38:13;97438.66;;;23.77;42.03
77881;BME280;67077;50.298;18.996;2023-07-20T12:40:41;97433.64;;;23.82;42.04
77881;BME280;67077;50.298;18.996;2023-07-20T12:43:09;97437.41;;;23.85;41.86
77881;BME280;67077;50.298;18.996;2023-07-20T12:45:37;97444.21;;;23.79;41.06
77881;BME280;67077;50.298;18.996;2023-07-20T12:48:05;97445.51;;;23.67;40.53
77881;BME280;67077;50.298;18.996;2023-07-20T12:50:33;97446.63;;;23.61;40.86
77881;BME280;67077;50.298;18.996;2023-07-20T12:53:03;97446.61;;;23.62;41.06
77881;BME280;67077;50.298;18.996;2023-07-20T12:55:31;97440.70;;;23.67;41.52
77881;BME280;67077;50.298;18.996;2023-07-20T12:57:59;97443.76;;;23.72;40.52
77881;BME280;67077;50.298;18.996;2023-07-20T13:00:27;97441.10;;;23.69;40.90
77881;BME280;67077;50.298;18.996;2023-07-20T13:02:55;97440.12;;;23.72;41.17
77881;BME280;67077;50.298;18.996;2023-07-20T13:05:25;97439.54;;;23.69;41.27
77881;BME280;67077;50.298;18.996;2023-07-20T13:07:53;97441.60;;;23.65;41.73
77881;BME280;67077;50.298;18.996;2023-07-20T13:10:21;97436.94;;;23.60;42.01
77881;BME280;67077;50.298;18.996;2023-07-20T13:12:50;97440.48;;;23.52;42.01
77881;BME280;67077;50.298;18.996;2023-07-20T13:15:18;97443.48;;;23.58;42.26
77881;BME280;67077;50.298;18.996;2023-07-20T13:17:46;97439.05;;;23.71;41.54
77881;BME280;67077;50.298;18.996;2023-07-20T13:20:15;97435.94;;;23.83;41.08
77881;BME280;67077;50.298;18.996;2023-07-20T13:22:42;97436.98;;;23.98;40.86